Caledonia, Missouri
Current Conditions -  °F | °C
As of 1:15 AM on Saturday 25 Oct 2014 (Local Time) from KFAM Reporting Station
Clear Clear  
Wind Chill: 59°   Ceiling: Unl
Heat Index: 59°   Visibility: 10mi
Dew Point: 54°   Wind: 8mph
Humidity: 82%   Direction: 170°S
Pressure: 30.04"   Gusts: NA
Location:  37.76°N, 90.77°W
Report Text: KFAM 250615Z AUTO 17007KT 10SM CLR 15/12 A3004 RMK AO1
Loading
Personal Weather Stations






























Interactive Weather Map New forecast layout! Learn more

10-Day Weather Forecast

Advertisements
Track Severe Weather on mobile